createdAt,value
2019-02-21T00:01:31.520Z,47.20
2019-02-21T00:04:05.691Z,47.23
2019-02-21T00:06:39.690Z,49.73
2019-02-21T00:09:14.869Z,36.70
2019-02-21T00:11:49.032Z,35.13
2019-02-21T00:14:23.928Z,45.60
2019-02-21T00:16:58.905Z,40.23
2019-02-21T00:19:33.334Z,42.80
2019-02-21T00:22:06.804Z,33.07
2019-02-21T00:24:41.297Z,34.37
2019-02-21T00:27:14.808Z,35.93
2019-02-21T00:29:49.481Z,38.60
2019-02-21T00:32:23.724Z,33.37
2019-02-21T00:34:57.686Z,38.80
2019-02-21T00:37:31.265Z,44.73
2019-02-21T00:40:05.049Z,33.07
2019-02-21T00:42:38.756Z,47.73
2019-02-21T00:45:12.855Z,37.07
2019-02-21T00:47:47.262Z,32.47
2019-02-21T00:50:21.157Z,42.37
2019-02-21T00:52:55.664Z,47.50
2019-02-21T00:55:30.237Z,37.63
2019-02-21T00:58:03.637Z,33.70
2019-02-21T01:00:46.204Z,29.57
2019-02-21T01:03:13.986Z,28.50
2019-02-21T01:05:48.045Z,24.17
2019-02-21T01:08:21.875Z,30.10
2019-02-21T01:10:55.838Z,22.50
2019-02-21T01:13:29.558Z,35.50
2019-02-21T01:16:03.518Z,36.83
2019-02-21T01:18:37.330Z,39.90
2019-02-21T01:21:11.576Z,54.93
2019-02-21T01:23:45.043Z,45.60
2019-02-21T01:26:19.037Z,40.50
2019-02-21T01:28:52.678Z,34.17
2019-02-21T01:31:27.964Z,27.70
2019-02-21T01:34:01.501Z,28.90
2019-02-21T01:36:35.380Z,27.93
2019-02-21T01:39:09.070Z,39.20
2019-02-21T01:41:42.947Z,26.80
2019-02-21T01:44:16.786Z,25.73
2019-02-21T01:46:50.654Z,30.67
2019-02-21T01:49:25.415Z,29.00
2019-02-21T01:51:59.393Z,26.40
2019-02-21T01:54:32.853Z,25.27
2019-02-21T01:57:06.592Z,27.53
2019-02-21T01:59:40.290Z,23.77
2019-02-21T02:02:14.735Z,36.27
2019-02-21T02:04:48.302Z,29.80
2019-02-21T02:07:22.165Z,25.33
2019-02-21T02:09:55.824Z,26.70
2019-02-21T02:12:29.883Z,25.43
2019-02-21T02:15:03.255Z,26.93
2019-02-21T02:17:37.384Z,27.23
2019-02-21T02:20:11.004Z,25.30
2019-02-21T02:22:45.051Z,25.37
2019-02-21T02:25:19.401Z,25.83
2019-02-21T02:27:53.505Z,28.50
2019-02-21T02:30:27.057Z,29.03
2019-02-21T02:33:01.379Z,28.97
2019-02-21T02:35:37.241Z,25.77
2019-02-21T02:38:11.186Z,22.50
2019-02-21T02:40:44.841Z,23.60
2019-02-21T02:43:18.572Z,34.43
2019-02-21T02:45:54.460Z,30.83
2019-02-21T02:48:28.416Z,28.77
2019-02-21T02:51:02.994Z,25.03
2019-02-21T02:53:36.996Z,28.77
2019-02-21T02:56:10.659Z,28.77
2019-02-21T02:58:45.964Z,23.30
2019-02-21T03:01:19.428Z,26.50
2019-02-21T03:03:53.493Z,26.50
2019-02-21T03:06:27.026Z,26.03
2019-02-21T03:09:00.708Z,24.93
2019-02-21T03:11:35.616Z,24.30
2019-02-21T03:14:09.591Z,24.40
2019-02-21T03:16:42.970Z,25.40
2019-02-21T03:19:17.155Z,20.17
2019-02-21T03:21:50.668Z,26.30
2019-02-21T03:24:24.930Z,27.30
2019-02-21T03:26:58.742Z,25.23
2019-02-21T03:29:34.128Z,25.13
2019-02-21T03:32:07.667Z,21.27
2019-02-21T03:34:42.326Z,23.93
2019-02-21T03:37:15.947Z,23.27
2019-02-21T03:39:50.907Z,24.23
2019-02-21T03:42:24.380Z,22.90
2019-02-21T03:44:58.702Z,30.27
2019-02-21T03:47:32.210Z,22.73
2019-02-21T03:50:06.544Z,25.47
2019-02-21T03:52:40.506Z,24.83
2019-02-21T03:55:14.538Z,26.97
2019-02-21T03:57:47.622Z,27.00
2019-02-21T04:00:21.726Z,44.63
2019-02-21T04:02:55.111Z,37.83
2019-02-21T04:05:30.393Z,38.03
2019-02-21T04:08:06.295Z,44.13
2019-02-21T04:10:40.190Z,27.30
2019-02-21T04:13:15.266Z,33.50
2019-02-21T04:15:49.529Z,30.13
2019-02-21T04:18:23.384Z,34.77
2019-02-21T04:20:57.504Z,29.30
2019-02-21T04:23:31.219Z,30.40
2019-02-21T04:26:05.134Z,25.30
2019-02-21T04:28:39.362Z,26.10
2019-02-21T04:31:13.266Z,26.93
2019-02-21T04:33:46.942Z,26.23
2019-02-21T04:36:23.351Z,21.37
2019-02-21T04:38:56.690Z,25.87
2019-02-21T04:41:30.694Z,24.07
2019-02-21T04:44:11.316Z,43.07
2019-02-21T04:46:45.859Z,29.17
2019-02-21T04:49:21.692Z,29.57
2019-02-21T04:51:55.615Z,30.63
2019-02-21T04:54:29.448Z,31.27
2019-02-21T04:57:03.231Z,23.33
2019-02-21T04:59:36.617Z,33.40
2019-02-21T05:02:10.730Z,31.87
2019-02-21T05:04:46.123Z,31.10
2019-02-21T05:07:20.479Z,29.00
2019-02-21T05:09:58.109Z,25.40
2019-02-21T05:12:30.060Z,27.37
2019-02-21T05:15:03.598Z,23.30
2019-02-21T05:17:37.554Z,27.83
2019-02-21T05:20:11.028Z,26.60
2019-02-21T05:22:44.857Z,26.07
2019-02-21T05:25:20.768Z,31.07
2019-02-21T05:28:19.421Z,23.53
2019-02-21T05:30:55.189Z,25.83
2019-02-21T05:33:53.696Z,26.77
2019-02-21T05:37:03.721Z,40.10
2019-02-21T05:39:56.468Z,28.20
2019-02-21T05:42:50.538Z,27.13
2019-02-21T05:45:34.894Z,31.47
2019-02-21T05:48:26.614Z,36.53
2019-02-21T05:51:09.575Z,34.10
2019-02-21T05:53:54.301Z,40.47
2019-02-21T05:56:49.262Z,41.13
2019-02-21T05:59:54.466Z,37.30
2019-02-21T06:03:01.416Z,32.07
2019-02-21T06:05:49.589Z,24.30
2019-02-21T06:08:29.537Z,28.00
2019-02-21T06:11:34.967Z,29.50
2019-02-21T06:14:39.399Z,35.77
2019-02-21T06:17:25.918Z,33.37
2019-02-21T06:20:27.022Z,34.87
2019-02-21T06:23:09.594Z,45.12
2019-02-21T06:26:00.726Z,33.73
2019-02-21T06:28:42.597Z,33.63
2019-02-21T06:31:20.213Z,30.87
2019-02-21T06:33:53.765Z,40.07
2019-02-21T06:36:27.599Z,38.53
2019-02-21T06:39:01.315Z,53.17
2019-02-21T06:41:36.881Z,45.33
2019-02-21T06:44:13.134Z,51.27
2019-02-21T06:46:47.188Z,36.80
2019-02-21T06:49:32.001Z,50.77
2019-02-21T06:52:02.250Z,46.60
2019-02-21T06:54:35.788Z,50.87
2019-02-21T06:57:10.247Z,61.37
2019-02-21T06:59:45.389Z,60.33
2019-02-21T07:02:20.285Z,74.27
2019-02-21T07:04:56.616Z,58.80
2019-02-21T07:07:30.237Z,83.97
2019-02-21T07:10:04.597Z,90.73
2019-02-21T07:12:38.983Z,80.30
2019-02-21T07:15:15.121Z,86.60
2019-02-21T07:17:50.236Z,89.80
2019-02-21T07:20:24.677Z,92.73
2019-02-21T07:22:59.087Z,79.63
2019-02-21T07:25:50.514Z,72.10
2019-02-21T07:28:24.777Z,70.27
2019-02-21T07:30:59.305Z,84.07
2019-02-21T07:33:34.046Z,69.67
2019-02-21T07:36:14.098Z,68.40
2019-02-21T07:38:49.251Z,66.90
2019-02-21T07:41:24.423Z,47.40
2019-02-21T07:43:58.946Z,65.77
2019-02-21T07:46:35.049Z,70.00
2019-02-21T07:49:11.446Z,56.73
2019-02-21T07:51:46.238Z,50.93
2019-02-21T07:54:20.706Z,57.57
2019-02-21T07:57:02.002Z,84.97
2019-02-21T07:59:36.287Z,50.43
2019-02-21T08:02:11.259Z,68.03
2019-02-21T08:04:47.830Z,75.17
2019-02-21T08:07:26.253Z,62.13
2019-02-21T08:10:01.213Z,57.17
2019-02-21T08:12:36.466Z,66.80
2019-02-21T08:15:17.663Z,44.17
2019-02-21T08:17:53.550Z,44.50
2019-02-21T08:20:34.591Z,42.07
2019-02-21T08:23:04.579Z,30.60
2019-02-21T08:25:40.027Z,36.83
2019-02-21T08:28:14.214Z,63.83
2019-02-21T08:30:50.307Z,33.50
2019-02-21T08:33:34.586Z,53.83
2019-02-21T08:36:11.715Z,32.07
2019-02-21T08:38:49.545Z,41.03
2019-02-21T08:41:36.504Z,36.30
2019-02-21T08:44:12.246Z,34.07
2019-02-21T08:46:48.897Z,37.97
2019-02-21T08:49:24.410Z,37.07
2019-02-21T08:52:00.427Z,31.03
2019-02-21T08:54:35.380Z,44.10
2019-02-21T08:57:11.179Z,30.87
2019-02-21T08:59:46.333Z,33.97
2019-02-21T09:02:29.058Z,34.80
2019-02-21T09:05:09.359Z,33.37
2019-02-21T09:07:48.261Z,36.80
2019-02-21T09:10:29.345Z,55.27
2019-02-21T09:13:10.452Z,38.57
2019-02-21T09:15:46.633Z,27.30
2019-02-21T09:18:39.712Z,36.17
2019-02-21T09:21:17.343Z,31.07
2019-02-21T09:23:56.661Z,40.50
2019-02-21T09:34:20.599Z,31.50
2019-02-21T09:36:58.451Z,34.93
2019-02-21T09:39:37.960Z,36.77
2019-02-21T09:42:24.182Z,37.40
2019-02-21T09:45:01.388Z,37.20
2019-02-21T09:51:27.447Z,28.10
2019-02-21T09:54:15.220Z,25.33
2019-02-21T09:57:20.904Z,23.93
2019-02-21T10:00:04.326Z,23.47
2019-02-21T10:02:45.723Z,22.37
2019-02-21T10:05:39.808Z,23.00
2019-02-21T10:08:18.241Z,28.53
2019-02-21T10:11:00.865Z,30.30
2019-02-21T10:13:54.739Z,24.17
2019-02-21T10:17:18.777Z,30.30
2019-02-21T10:35:11.431Z,30.10
2019-02-21T11:09:27.054Z,25.83
2019-02-21T11:15:54.674Z,38.70
2019-02-21T11:34:00.452Z,29.20
2019-02-21T11:43:54.798Z,31.33
2019-02-21T11:46:48.088Z,22.43
2019-02-21T11:53:51.244Z,20.33
2019-02-21T11:56:28.322Z,23.67
2019-02-21T11:59:25.300Z,25.17
2019-02-21T12:02:09.792Z,36.50
2019-02-21T12:04:48.474Z,26.07
2019-02-21T12:07:25.970Z,20.13
2019-02-21T12:10:01.137Z,28.07
2019-02-21T12:12:37.725Z,26.00
2019-02-21T12:15:14.927Z,24.10
2019-02-21T12:17:51.014Z,23.47
2019-02-21T12:20:27.251Z,24.07
2019-02-21T12:23:04.171Z,24.30
2019-02-21T12:25:43.369Z,21.30
2019-02-21T12:28:18.137Z,23.77
2019-02-21T12:30:52.846Z,27.53
2019-02-21T12:33:27.633Z,24.83
2019-02-21T12:36:06.700Z,20.57
2019-02-21T12:38:42.791Z,18.03
2019-02-21T12:41:18.800Z,20.73
2019-02-21T12:43:53.937Z,19.60
2019-02-21T12:46:29.627Z,17.07
2019-02-21T12:49:06.814Z,26.27
2019-02-21T12:51:41.704Z,22.67
2019-02-21T12:54:17.896Z,16.23
2019-02-21T12:56:55.742Z,21.30
2019-02-21T12:59:30.940Z,20.73
2019-02-21T13:02:05.656Z,22.57
2019-02-21T13:04:39.952Z,23.67
2019-02-21T13:07:14.753Z,19.77
2019-02-21T13:09:50.190Z,20.73
2019-02-21T13:12:25.478Z,24.03
2019-02-21T13:15:00.409Z,21.40
2019-02-21T13:17:35.608Z,18.77
2019-02-21T13:20:12.187Z,29.80
2019-02-21T13:22:46.950Z,22.47
2019-02-21T13:25:25.491Z,20.17
2019-02-21T13:27:59.430Z,18.13
2019-02-21T13:30:34.906Z,17.53
2019-02-21T13:33:10.362Z,18.77
2019-02-21T13:35:52.133Z,17.53
2019-02-21T13:38:23.681Z,18.00
2019-02-21T13:40:58.837Z,17.87
2019-02-21T13:43:34.126Z,22.63
2019-02-21T13:46:09.704Z,23.17
2019-02-21T13:48:45.634Z,21.00
2019-02-21T13:51:21.032Z,16.73
2019-02-21T13:53:55.993Z,23.40
2019-02-21T13:56:31.736Z,22.23
2019-02-21T13:59:06.103Z,17.10
2019-02-21T14:01:41.168Z,16.40
2019-02-21T14:04:16.027Z,16.27
2019-02-21T14:06:51.092Z,15.53
2019-02-21T14:09:25.858Z,16.40
2019-02-21T14:12:01.739Z,14.67
2019-02-21T14:14:36.900Z,14.80
2019-02-21T14:17:14.823Z,18.47
2019-02-21T14:19:48.451Z,25.57
2019-02-21T14:22:22.964Z,16.50
2019-02-21T14:24:57.112Z,15.50
2019-02-21T14:27:32.928Z,13.87
2019-02-21T14:30:08.114Z,16.90
2019-02-21T14:32:44.053Z,12.10
2019-02-21T14:35:19.185Z,15.63
2019-02-21T14:37:53.436Z,13.13
2019-02-21T14:40:28.123Z,13.50
2019-02-21T14:43:01.862Z,14.40
2019-02-21T14:45:36.622Z,15.53
2019-02-21T14:48:11.337Z,16.37
2019-02-21T14:50:46.438Z,18.10
2019-02-21T14:53:21.505Z,18.17
2019-02-21T14:55:56.056Z,14.33
2019-02-21T14:58:30.663Z,14.10
2019-02-21T15:01:05.475Z,18.10
2019-02-21T15:03:41.821Z,12.70
2019-02-21T15:06:26.435Z,15.53
2019-02-21T15:08:51.317Z,15.10
2019-02-21T15:11:25.590Z,20.93
2019-02-21T15:13:59.338Z,17.83
2019-02-21T15:16:33.703Z,17.97
2019-02-21T15:19:10.754Z,16.37
2019-02-21T15:21:46.212Z,18.33
2019-02-21T15:24:20.280Z,17.97
2019-02-21T15:26:55.271Z,22.20
2019-02-21T15:29:29.232Z,20.70
2019-02-21T15:32:11.042Z,19.33
2019-02-21T15:34:39.249Z,18.93
2019-02-21T15:37:14.675Z,18.13
2019-02-21T15:39:51.664Z,20.00
2019-02-21T15:42:30.221Z,20.10
2019-02-21T15:45:05.346Z,18.33
2019-02-21T15:47:39.873Z,16.70
2019-02-21T15:50:19.543Z,18.83
2019-02-21T15:52:53.352Z,19.53
2019-02-21T15:55:32.051Z,18.50
2019-02-21T15:58:05.969Z,17.03
2019-02-21T16:00:45.364Z,17.20
2019-02-21T16:03:26.400Z,24.67
2019-02-21T16:06:00.562Z,24.53
2019-02-21T16:08:36.021Z,23.77
2019-02-21T16:11:10.996Z,26.50
2019-02-21T16:13:44.959Z,21.87
2019-02-21T16:16:19.495Z,24.57
2019-02-21T16:18:54.815Z,27.10
2019-02-21T16:21:29.859Z,20.93
2019-02-21T16:24:04.480Z,19.70
2019-02-21T16:26:38.462Z,24.83
2019-02-21T16:29:12.850Z,27.13
2019-02-21T16:31:46.898Z,31.47
2019-02-21T16:34:25.537Z,25.27
2019-02-21T16:37:02.769Z,27.23
2019-02-21T16:39:36.777Z,26.07
2019-02-21T16:42:12.600Z,22.37
2019-02-21T16:44:47.508Z,25.60
2019-02-21T16:47:23.712Z,21.60
2019-02-21T16:49:58.786Z,23.87
2019-02-21T16:52:32.564Z,27.17
2019-02-21T16:55:08.912Z,23.43
2019-02-21T16:57:43.740Z,35.27
2019-02-21T17:00:19.632Z,30.50
2019-02-21T17:02:54.154Z,24.60
2019-02-21T17:05:28.462Z,29.27
2019-02-21T17:08:02.545Z,35.70
2019-02-21T17:10:38.316Z,40.07
2019-02-21T17:13:12.320Z,36.27
2019-02-21T17:15:47.313Z,30.97
2019-02-21T17:18:25.300Z,42.77
2019-02-21T17:21:00.035Z,36.43
2019-02-21T17:23:36.067Z,39.67
2019-02-21T17:26:14.976Z,36.17
2019-02-21T17:28:52.031Z,32.87
2019-02-21T17:31:27.491Z,37.77
2019-02-21T17:34:01.796Z,46.63
2019-02-21T17:36:37.303Z,35.57
2019-02-21T17:39:12.757Z,34.87
2019-02-21T17:41:47.880Z,46.33
2019-02-21T17:44:23.229Z,39.53
2019-02-21T17:46:56.632Z,33.67
2019-02-21T17:49:34.046Z,41.73
2019-02-21T17:52:08.568Z,37.20
2019-02-21T17:54:42.537Z,38.43
2019-02-21T17:57:19.237Z,36.57
2019-02-21T17:59:55.301Z,37.70
2019-02-21T18:02:29.994Z,46.00
2019-02-21T18:05:05.946Z,38.87
2019-02-21T18:07:41.945Z,37.73
2019-02-21T18:10:16.852Z,41.97
2019-02-21T18:12:53.122Z,37.43
2019-02-21T18:15:27.350Z,47.47
2019-02-21T18:18:02.366Z,65.17
2019-02-21T18:20:41.683Z,61.50
2019-02-21T18:23:16.733Z,47.70
2019-02-21T18:25:55.068Z,51.53
2019-02-21T18:28:29.767Z,41.67
2019-02-21T18:31:22.393Z,72.90
2019-02-21T18:33:56.847Z,63.03
2019-02-21T18:36:32.728Z,71.47
2019-02-21T18:39:09.864Z,60.53
2019-02-21T18:41:45.647Z,77.67
2019-02-21T18:44:22.622Z,68.40
2019-02-21T18:46:57.616Z,76.40
2019-02-21T18:49:31.851Z,71.53
2019-02-21T18:52:06.878Z,65.17
2019-02-21T18:54:41.389Z,76.07
2019-02-21T18:57:16.654Z,50.80
2019-02-21T18:59:51.990Z,51.67
2019-02-21T19:02:26.918Z,75.50
2019-02-21T19:05:01.429Z,117.97
2019-02-21T19:07:36.745Z,116.90
2019-02-21T19:10:14.984Z,152.17
2019-02-21T19:12:51.179Z,103.73
2019-02-21T19:15:28.146Z,129.87
2019-02-21T19:18:02.369Z,93.37
2019-02-21T19:20:36.814Z,90.53
2019-02-21T19:23:11.740Z,93.13
2019-02-21T19:25:46.119Z,110.07
2019-02-21T19:28:20.933Z,94.10
2019-02-21T19:31:21.740Z,106.93
2019-02-21T19:33:56.733Z,96.03
2019-02-21T19:36:31.416Z,84.03
2019-02-21T19:39:06.708Z,92.93
2019-02-21T19:41:42.353Z,87.30
2019-02-21T19:44:16.426Z,82.70
2019-02-21T19:46:50.713Z,71.53
2019-02-21T19:49:27.087Z,78.60
2019-02-21T19:52:01.187Z,93.17
2019-02-21T19:54:35.664Z,72.40
2019-02-21T19:57:11.902Z,92.50
2019-02-21T19:59:45.886Z,80.13
2019-02-21T20:02:20.722Z,76.47
2019-02-21T20:04:55.774Z,71.03
2019-02-21T20:07:30.483Z,87.47
2019-02-21T20:10:05.387Z,76.13
2019-02-21T20:12:39.410Z,86.23
2019-02-21T20:15:14.092Z,73.60
2019-02-21T20:17:49.096Z,73.87
2019-02-21T20:20:25.152Z,82.60
2019-02-21T20:23:00.394Z,89.77
2019-02-21T20:25:35.095Z,81.70
2019-02-21T20:28:09.472Z,72.53
2019-02-21T20:30:43.792Z,78.43
2019-02-21T20:33:18.965Z,66.17
2019-02-21T20:35:53.065Z,64.10
2019-02-21T20:38:32.125Z,67.83
2019-02-21T20:41:03.432Z,67.67
2019-02-21T20:43:37.774Z,74.03
2019-02-21T20:46:12.173Z,70.80
2019-02-21T20:48:46.855Z,72.67
2019-02-21T20:51:23.708Z,92.50
2019-02-21T20:53:58.282Z,50.13
2019-02-21T20:56:34.313Z,53.33
2019-02-21T20:59:08.300Z,53.00
2019-02-21T21:01:42.363Z,48.13
2019-02-21T21:04:16.819Z,52.73
2019-02-21T21:06:52.475Z,50.53
2019-02-21T21:09:29.702Z,52.47
2019-02-21T21:12:04.663Z,50.57
2019-02-21T21:14:39.646Z,54.60
2019-02-21T21:17:13.836Z,51.80
2019-02-21T21:19:48.057Z,65.57
2019-02-21T21:22:22.842Z,57.63
2019-02-21T21:24:57.226Z,65.13
2019-02-21T21:27:33.108Z,60.07
2019-02-21T21:30:08.111Z,57.07
2019-02-21T21:32:43.822Z,57.57
2019-02-21T21:35:18.442Z,61.40
2019-02-21T21:37:52.523Z,55.20
2019-02-21T21:40:27.803Z,65.47
2019-02-21T21:43:01.835Z,44.07
2019-02-21T21:45:35.870Z,51.63
2019-02-21T21:48:09.691Z,53.10
2019-02-21T21:50:44.016Z,47.17
2019-02-21T21:53:18.841Z,61.53
2019-02-21T21:55:53.016Z,48.27
2019-02-21T21:58:26.726Z,49.43
2019-02-21T22:01:01.198Z,49.30
2019-02-21T22:03:35.232Z,50.00
2019-02-21T22:06:10.047Z,50.73
2019-02-21T22:08:44.659Z,78.23
2019-02-21T22:11:18.833Z,50.57
2019-02-21T22:13:53.334Z,45.17
2019-02-21T22:16:27.760Z,48.30
2019-02-21T22:19:01.470Z,45.87
2019-02-21T22:21:35.735Z,34.43
2019-02-21T22:24:09.715Z,38.57
2019-02-21T22:26:44.340Z,38.63
2019-02-21T22:29:24.972Z,51.57
2019-02-21T22:31:59.175Z,42.57
2019-02-21T22:34:33.732Z,44.63
2019-02-21T22:37:07.943Z,53.70
2019-02-21T22:39:46.352Z,40.17
2019-02-21T22:42:20.614Z,74.80
2019-02-21T22:44:54.787Z,78.67
2019-02-21T22:47:29.057Z,64.63
2019-02-21T22:50:02.566Z,68.40
2019-02-21T22:52:36.966Z,42.57
2019-02-21T22:55:11.077Z,42.10
2019-02-21T22:57:44.833Z,49.70
2019-02-21T23:01:01.625Z,49.17
2019-02-21T23:04:02.234Z,40.60
2019-02-21T23:07:01.778Z,53.70
2019-02-21T23:09:37.075Z,35.43
2019-02-21T23:12:10.899Z,28.07
2019-02-21T23:14:45.216Z,30.43
2019-02-21T23:17:20.041Z,43.07
2019-02-21T23:19:54.561Z,45.00
2019-02-21T23:22:28.484Z,30.20
2019-02-21T23:25:03.186Z,52.93
2019-02-21T23:27:36.872Z,49.17
2019-02-21T23:30:14.169Z,36.47
2019-02-21T23:32:47.919Z,39.37
2019-02-21T23:35:22.568Z,33.17
2019-02-21T23:37:56.575Z,23.60
2019-02-21T23:40:31.623Z,27.57
2019-02-21T23:43:05.639Z,33.93
2019-02-21T23:45:39.520Z,38.47
2019-02-21T23:48:15.166Z,34.87
2019-02-21T23:50:49.812Z,35.77
2019-02-21T23:53:23.366Z,31.47
2019-02-21T23:55:57.514Z,26.40
2019-02-21T23:58:30.943Z,25.97
